Time,TemperatureF,DewpointF,PressureIn,WindDirection,WindDirectionDegrees,WindSpeedMPH,WindSpeedGustMPH,Humidity,HourlyPrecipIn,Conditions,Clouds,dailyrainin,SoftwareType,DateUTC
2013-09-18 00:01:00,52.9,51.5,29.99,South,186,0.0,0.0,95,0.00,,OVC070,0.12,VWS V14.01,2013-09-18 07:01:00,
2013-09-18 00:06:00,53.0,51.6,30.00,South,185,0.0,0.0,95,0.00,,BKN080,0.00,VWS V14.01,2013-09-18 07:06:00,
2013-09-18 00:11:00,53.0,51.6,30.00,South,186,0.0,0.0,95,0.00,,BKN080,0.00,VWS V14.01,2013-09-18 07:11:00,
2013-09-18 00:16:00,53.0,51.6,30.00,South,186,0.0,0.0,95,0.00,,BKN080,0.00,VWS V14.01,2013-09-18 07:16:00,
2013-09-18 00:21:00,53.0,51.6,30.00,South,186,0.0,0.0,95,0.00,,BKN080,0.00,VWS V14.01,2013-09-18 07:21:00,
2013-09-18 00:26:00,53.0,51.6,30.00,South,186,0.0,0.0,95,0.00,,OVC080,0.00,VWS V14.01,2013-09-18 07:26:00,
2013-09-18 00:31:00,53.1,52.0,30.00,South,186,0.0,0.0,96,0.00,,OVC080,0.00,VWS V14.01,2013-09-18 07:31:00,
2013-09-18 00:36:00,53.2,51.8,30.00,South,186,0.0,0.0,95,0.00,,OVC080,0.00,VWS V14.01,2013-09-18 07:36:00,
2013-09-18 00:41:00,53.3,52.2,30.00,South,185,0.0,0.0,96,0.00,,OVC080,0.00,VWS V14.01,2013-09-18 07:41:00,
2013-09-18 00:46:00,53.2,52.1,30.00,South,185,0.0,0.0,96,0.00,,BKN034,0.00,VWS V14.01,2013-09-18 07:46:00,
2013-09-18 00:51:00,53.2,52.1,30.00,South,186,0.0,0.0,96,0.00,,BKN034,0.00,VWS V14.01,2013-09-18 07:51:00,
2013-09-18 00:56:00,53.1,52.0,30.00,South,186,0.0,0.0,96,0.00,,BKN034,0.00,VWS V14.01,2013-09-18 07:56:00,
2013-09-18 01:01:00,53.0,51.9,30.00,South,186,0.0,0.0,96,0.00,,BKN034,0.00,VWS V14.01,2013-09-18 08:01:00,
2013-09-18 01:06:00,52.9,51.5,30.01,South,186,0.0,0.0,95,0.00,,OVC070,0.00,VWS V14.01,2013-09-18 08:06:00,
2013-09-18 01:11:00,52.8,51.7,30.01,South,185,0.0,0.0,96,0.00,,OVC070,0.00,VWS V14.01,2013-09-18 08:11:00,
2013-09-18 01:16:00,52.8,51.7,30.01,South,186,0.0,0.0,96,0.00,,OVC070,0.00,VWS V14.01,2013-09-18 08:16:00,
2013-09-18 01:21:00,52.8,51.7,30.01,South,185,0.0,0.0,96,0.00,,OVC070,0.00,VWS V14.01,2013-09-18 08:21:00,
2013-09-18 01:26:00,52.7,51.6,30.01,South,186,0.0,0.0,96,0.00,,OVC024,0.00,VWS V14.01,2013-09-18 08:26:00,
2013-09-18 01:31:00,52.7,51.6,30.01,South,186,0.0,0.0,96,0.00,,OVC024,0.00,VWS V14.01,2013-09-18 08:31:00,
2013-09-18 01:36:00,52.6,51.5,30.01,South,186,0.0,0.0,96,0.00,,OVC024,0.00,VWS V14.01,2013-09-18 08:36:00,
2013-09-18 01:41:00,52.7,51.6,30.01,South,186,0.0,0.0,96,0.00,,OVC024,0.00,VWS V14.01,2013-09-18 08:41:00,
2013-09-18 01:46:00,52.8,51.7,30.02,South,186,0.0,0.0,96,0.00,,OVC085,0.00,VWS V14.01,2013-09-18 08:46:00,
2013-09-18 01:51:00,52.8,51.7,30.01,South,186,0.0,0.0,96,0.00,,OVC085,0.00,VWS V14.01,2013-09-18 08:51:00,
2013-09-18 01:56:00,52.9,51.8,30.02,South,186,0.0,0.0,96,0.00,,OVC085,0.00,VWS V14.01,2013-09-18 08:56:00,
2013-09-18 02:01:00,53.0,51.9,30.02,South,185,0.0,0.0,96,0.00,,OVC085,0.00,VWS V14.01,2013-09-18 09:01:00,
2013-09-18 02:06:00,53.0,51.9,30.02,South,186,0.0,0.0,96,0.00,,BKN075,0.00,VWS V14.01,2013-09-18 09:06:00,
2013-09-18 02:11:00,53.1,52.0,30.02,South,186,0.0,0.0,96,0.00,,BKN075,0.00,VWS V14.01,2013-09-18 09:11:00,
2013-09-18 02:16:00,53.2,52.1,30.02,South,186,0.0,0.0,96,0.00,,BKN075,0.00,VWS V14.01,2013-09-18 09:16:00,
2013-09-18 02:21:00,53.2,52.1,30.02,South,186,0.0,0.0,96,0.00,,BKN075,0.00,VWS V14.01,2013-09-18 09:21:00,
2013-09-18 02:26:00,53.1,52.0,30.02,South,186,0.0,0.0,96,0.00,,OVC085,0.00,VWS V14.01,2013-09-18 09:26:00,
2013-09-18 02:31:00,53.0,51.9,30.02,South,186,0.0,0.0,96,0.00,,OVC085,0.00,VWS V14.01,2013-09-18 09:31:00,
2013-09-18 02:36:00,52.8,51.7,30.02,South,186,0.0,0.0,96,0.00,,OVC085,0.00,VWS V14.01,2013-09-18 09:36:00,
2013-09-18 02:41:00,52.6,51.5,30.02,South,186,0.0,0.0,96,0.00,,OVC085,0.00,VWS V14.01,2013-09-18 09:41:00,
2013-09-18 02:46:00,52.5,51.4,30.02,South,186,0.0,0.0,96,0.00,,OVC075,0.00,VWS V14.01,2013-09-18 09:46:00,
2013-09-18 02:51:00,52.4,51.3,30.02,South,186,0.0,0.0,96,0.00,,OVC075,0.00,VWS V14.01,2013-09-18 09:51:00,
2013-09-18 02:56:00,52.2,51.1,30.02,South,186,0.0,0.0,96,0.00,,OVC075,0.00,VWS V14.01,2013-09-18 09:56:00,
2013-09-18 03:01:00,52.2,51.1,30.02,South,186,0.0,0.0,96,0.00,,OVC075,0.00,VWS V14.01,2013-09-18 10:01:00,
2013-09-18 03:06:00,52.3,51.2,30.02,South,186,0.0,0.0,96,0.00,,OVC028,0.00,VWS V14.01,2013-09-18 10:06:00,
2013-09-18 03:11:00,52.5,51.4,30.03,South,186,0.0,0.0,96,0.00,,OVC028,0.00,VWS V14.01,2013-09-18 10:11:00,
2013-09-18 03:16:00,52.6,51.5,30.03,South,186,0.0,0.0,96,0.00,,OVC028,0.00,VWS V14.01,2013-09-18 10:16:00,
2013-09-18 03:21:00,52.9,51.8,30.03,South,186,0.0,0.0,96,0.00,,OVC028,0.00,VWS V14.01,2013-09-18 10:21:00,
2013-09-18 03:26:00,53.0,52.2,30.03,South,186,0.0,0.0,97,0.00,,OVC075,0.00,VWS V14.01,2013-09-18 10:26:00,
2013-09-18 03:31:00,53.2,52.4,30.03,South,186,0.0,0.0,97,0.01,,OVC075,0.01,VWS V14.01,2013-09-18 10:31:00,
2013-09-18 03:36:00,53.3,52.2,30.03,South,186,0.0,0.0,96,0.02,,OVC075,0.02,VWS V14.01,2013-09-18 10:36:00,
2013-09-18 03:41:00,53.4,52.3,30.03,South,186,0.0,0.0,96,0.02,,OVC075,0.02,VWS V14.01,2013-09-18 10:41:00,
2013-09-18 03:46:00,53.4,52.3,30.03,South,186,0.0,0.0,96,0.02,,OVC075,0.02,VWS V14.01,2013-09-18 10:46:00,
2013-09-18 03:51:00,53.5,52.4,30.03,South,186,0.0,0.0,96,0.02,,OVC075,0.02,VWS V14.01,2013-09-18 10:51:00,
2013-09-18 03:56:00,53.5,52.4,30.03,South,186,0.0,0.0,96,0.02,,OVC075,0.02,VWS V14.01,2013-09-18 10:56:00,
2013-09-18 04:01:00,53.5,52.4,30.03,South,186,0.0,0.0,96,0.02,,OVC075,0.02,VWS V14.01,2013-09-18 11:01:00,
2013-09-18 04:06:00,53.4,52.3,30.03,South,185,0.0,0.0,96,0.02,,OVC085,0.02,VWS V14.01,2013-09-18 11:06:00,
2013-09-18 04:11:00,53.2,52.1,30.03,South,186,0.0,0.0,96,0.02,,OVC085,0.02,VWS V14.01,2013-09-18 11:11:00,
2013-09-18 04:16:00,53.2,52.1,30.03,South,186,0.0,0.0,96,0.02,,OVC085,0.02,VWS V14.01,2013-09-18 11:16:00,
2013-09-18 04:21:00,53.2,52.1,30.04,South,186,0.0,0.0,96,0.02,,OVC085,0.02,VWS V14.01,2013-09-18 11:21:00,
2013-09-18 04:26:00,53.0,51.9,30.04,South,186,0.0,0.0,96,0.02,,OVC085,0.02,VWS V14.01,2013-09-18 11:26:00,
2013-09-18 04:31:00,53.1,52.0,30.04,South,186,0.0,0.0,96,0.01,,OVC085,0.02,VWS V14.01,2013-09-18 11:31:00,
2013-09-18 04:36:00,53.2,52.4,30.04,ESE,108,0.0,0.0,97,0.00,,OVC085,0.02,VWS V14.01,2013-09-18 11:36:00,
2013-09-18 04:41:00,53.3,52.5,30.04,ESE,107,0.0,0.0,97,0.00,,OVC085,0.02,VWS V14.01,2013-09-18 11:41:00,
2013-09-18 04:46:00,53.2,52.4,30.04,ESE,108,0.0,0.0,97,0.00,,BKN070,0.02,VWS V14.01,2013-09-18 11:46:00,
2013-09-18 04:51:00,53.3,52.5,30.04,ESE,108,0.0,0.0,97,0.00,,BKN070,0.02,VWS V14.01,2013-09-18 11:51:00,
2013-09-18 04:56:00,53.2,52.4,30.04,ESE,108,0.0,0.0,97,0.00,,BKN070,0.02,VWS V14.01,2013-09-18 11:56:00,
2013-09-18 05:01:00,53.2,52.1,30.04,ESE,107,0.0,0.0,96,0.00,,BKN070,0.02,VWS V14.01,2013-09-18 12:01:00,
2013-09-18 05:06:00,53.1,52.3,30.04,ESE,107,0.0,0.0,97,0.00,,BKN075,0.02,VWS V14.01,2013-09-18 12:06:00,
2013-09-18 05:11:00,53.1,52.3,30.04,ESE,108,0.0,0.0,97,0.00,,BKN075,0.02,VWS V14.01,2013-09-18 12:11:00,
2013-09-18 05:16:00,53.0,52.2,30.05,ESE,107,0.0,0.0,97,0.00,,BKN075,0.02,VWS V14.01,2013-09-18 12:16:00,
2013-09-18 05:21:00,53.0,52.2,30.05,ESE,108,0.0,0.0,97,0.00,,BKN075,0.02,VWS V14.01,2013-09-18 12:21:00,
2013-09-18 05:26:00,53.0,52.2,30.04,ESE,107,0.0,0.0,97,0.00,,OVC090,0.02,VWS V14.01,2013-09-18 12:26:00,
2013-09-18 05:31:00,53.1,52.3,30.04,ESE,107,0.0,0.0,97,0.00,,OVC090,0.02,VWS V14.01,2013-09-18 12:31:00,
2013-09-18 05:36:00,53.2,52.4,30.04,ESE,108,0.0,0.0,97,0.00,,OVC090,0.02,VWS V14.01,2013-09-18 12:36:00,
2013-09-18 05:41:00,53.2,52.4,30.05,ESE,108,0.0,0.0,97,0.00,,OVC090,0.02,VWS V14.01,2013-09-18 12:41:00,
2013-09-18 05:46:00,53.2,52.4,30.05,ESE,107,0.0,0.0,97,0.00,,OVC075,0.02,VWS V14.01,2013-09-18 12:46:00,
2013-09-18 05:51:00,53.4,52.6,30.05,ESE,108,0.0,0.0,97,0.00,,OVC075,0.02,VWS V14.01,2013-09-18 12:51:00,
2013-09-18 05:56:00,53.5,52.7,30.05,ESE,107,0.0,0.0,97,0.00,,OVC075,0.02,VWS V14.01,2013-09-18 12:56:00,
2013-09-18 06:01:00,53.7,52.9,30.05,ESE,107,0.0,0.0,97,0.00,,OVC075,0.02,VWS V14.01,2013-09-18 13:01:00,
2013-09-18 06:06:00,53.8,53.0,30.05,ESE,107,0.0,0.0,97,0.00,,BKN075,0.02,VWS V14.01,2013-09-18 13:06:00,
2013-09-18 06:11:00,53.9,53.1,30.05,ESE,108,0.0,0.0,97,0.00,,BKN075,0.02,VWS V14.01,2013-09-18 13:11:00,
2013-09-18 06:16:00,54.0,53.2,30.05,ESE,108,0.0,0.0,97,0.00,,BKN075,0.02,VWS V14.01,2013-09-18 13:16:00,
2013-09-18 06:21:00,54.1,53.3,30.05,ESE,108,0.0,0.0,97,0.00,,BKN075,0.02,VWS V14.01,2013-09-18 13:21:00,
2013-09-18 06:26:00,54.1,53.3,30.05,ESE,107,0.0,0.0,97,0.00,,BKN070,0.02,VWS V14.01,2013-09-18 13:26:00,
2013-09-18 06:31:00,54.1,53.3,30.05,ESE,107,0.0,0.0,97,0.00,,BKN070,0.02,VWS V14.01,2013-09-18 13:31:00,
2013-09-18 06:36:00,54.1,53.3,30.05,ESE,115,0.0,0.0,97,0.00,,BKN070,0.02,VWS V14.01,2013-09-18 13:36:00,
2013-09-18 06:41:00,54.0,53.2,30.05,ESE,115,0.0,0.0,97,0.00,,BKN070,0.02,VWS V14.01,2013-09-18 13:41:00,
2013-09-18 06:46:00,53.9,53.1,30.05,ESE,114,0.0,0.0,97,0.00,,OVC070,0.02,VWS V14.01,2013-09-18 13:46:00,
2013-09-18 06:51:00,53.8,53.0,30.06,ESE,115,0.0,0.0,97,0.00,,OVC070,0.02,VWS V14.01,2013-09-18 13:51:00,
2013-09-18 06:56:00,53.9,53.1,30.06,ESE,114,0.0,0.0,97,0.00,,OVC070,0.02,VWS V14.01,2013-09-18 13:56:00,
2013-09-18 07:01:00,54.0,53.2,30.06,ESE,115,0.0,0.0,97,0.00,,OVC070,0.02,VWS V14.01,2013-09-18 14:01:00,
2013-09-18 07:06:00,54.3,53.5,30.06,ESE,114,0.0,0.0,97,0.00,,OVC070,0.02,VWS V14.01,2013-09-18 14:06:00,
2013-09-18 07:11:00,54.4,53.6,30.06,ESE,114,0.0,0.0,97,0.00,,OVC070,0.02,VWS V14.01,2013-09-18 14:11:00,
2013-09-18 07:16:00,54.6,53.8,30.06,ESE,114,0.0,0.0,97,0.00,,OVC070,0.02,VWS V14.01,2013-09-18 14:16:00,
2013-09-18 07:21:00,54.7,53.9,30.06,ESE,115,1.0,0.0,97,0.00,,OVC070,0.02,VWS V14.01,2013-09-18 14:21:00,
2013-09-18 07:26:00,54.9,54.1,30.06,ESE,114,0.0,0.0,97,0.00,,OVC060,0.02,VWS V14.01,2013-09-18 14:26:00,
2013-09-18 07:31:00,54.8,54.0,30.06,ESE,114,0.0,0.0,97,0.00,,OVC060,0.02,VWS V14.01,2013-09-18 14:31:00,
2013-09-18 07:36:00,54.9,54.1,30.07,ESE,114,0.0,0.0,97,0.00,,OVC060,0.02,VWS V14.01,2013-09-18 14:36:00,
2013-09-18 07:41:00,54.9,54.1,30.06,ESE,114,0.0,0.0,97,0.00,,OVC060,0.02,VWS V14.01,2013-09-18 14:41:00,
2013-09-18 07:46:00,55.0,54.2,30.07,ESE,114,0.0,0.0,97,0.00,,OVC070,0.02,VWS V14.01,2013-09-18 14:46:00,
2013-09-18 07:51:00,55.1,54.3,30.07,ESE,114,0.0,0.0,97,0.00,,OVC070,0.02,VWS V14.01,2013-09-18 14:51:00,
2013-09-18 07:56:00,55.2,54.4,30.07,ESE,115,0.0,0.0,97,0.00,,OVC070,0.02,VWS V14.01,2013-09-18 14:56:00,
2013-09-18 08:01:00,55.4,54.6,30.07,ESE,114,0.0,0.0,97,0.00,,OVC070,0.02,VWS V14.01,2013-09-18 15:01:00,
2013-09-18 08:06:00,55.5,54.7,30.07,ESE,114,0.0,0.0,97,0.00,,OVC070,0.02,VWS V14.01,2013-09-18 15:06:00,
2013-09-18 08:11:00,55.6,54.8,30.07,ESE,114,0.0,0.0,97,0.00,,OVC070,0.02,VWS V14.01,2013-09-18 15:11:00,
2013-09-18 08:16:00,55.7,54.9,30.07,ESE,115,0.0,0.0,97,0.00,,OVC070,0.02,VWS V14.01,2013-09-18 15:16:00,
2013-09-18 08:21:00,55.7,54.9,30.07,ESE,115,0.0,0.0,97,0.00,,OVC070,0.02,VWS V14.01,2013-09-18 15:21:00,
2013-09-18 08:26:00,55.8,55.0,30.07,ESE,115,0.0,0.0,97,0.00,,OVC070,0.02,VWS V14.01,2013-09-18 15:26:00,
2013-09-18 08:31:00,56.0,55.2,30.08,ESE,115,0.0,0.0,97,0.00,,OVC070,0.02,VWS V14.01,2013-09-18 15:31:00,
2013-09-18 08:36:00,56.1,55.3,30.08,ESE,114,0.0,0.0,97,0.00,,OVC070,0.02,VWS V14.01,2013-09-18 15:36:00,
2013-09-18 08:41:00,56.5,55.7,30.08,SE,138,0.0,0.0,97,0.00,,OVC070,0.02,VWS V14.01,2013-09-18 15:41:00,
2013-09-18 08:46:00,56.7,55.9,30.08,SE,139,0.0,0.0,97,0.00,,OVC070,0.02,VWS V14.01,2013-09-18 15:46:00,
2013-09-18 08:51:00,56.9,56.1,30.08,SE,138,0.0,0.0,97,0.00,,OVC070,0.02,VWS V14.01,2013-09-18 15:51:00,
2013-09-18 08:56:00,57.2,56.4,30.08,SE,138,0.0,0.0,97,0.00,,OVC070,0.02,VWS V14.01,2013-09-18 15:56:00,
2013-09-18 09:01:00,57.5,56.7,30.08,SSE,155,0.0,0.0,97,0.00,,OVC070,0.02,VWS V14.01,2013-09-18 16:01:00,
2013-09-18 09:06:00,58.0,57.2,30.08,SSE,157,0.0,0.0,97,0.00,,OVC070,0.02,VWS V14.01,2013-09-18 16:06:00,
2013-09-18 09:11:00,58.5,57.7,30.08,SSE,158,0.0,0.0,97,0.00,,OVC070,0.02,VWS V14.01,2013-09-18 16:11:00,
2013-09-18 09:16:00,58.3,57.2,30.08,SW,215,0.0,0.0,96,0.00,,OVC070,0.02,VWS V14.01,2013-09-18 16:16:00,
2013-09-18 09:21:00,58.4,57.3,30.08,SSW,210,0.0,0.0,96,0.00,,OVC070,0.02,VWS V14.01,2013-09-18 16:21:00,
2013-09-18 09:26:00,59.2,58.1,30.08,NW,313,0.0,0.0,96,0.00,,BKN060,0.02,VWS V14.01,2013-09-18 16:26:00,
2013-09-18 09:31:00,59.9,58.8,30.08,SSW,205,0.0,0.0,96,0.00,,BKN060,0.02,VWS V14.01,2013-09-18 16:31:00,
2013-09-18 09:36:00,59.7,58.0,30.08,SSW,207,0.0,0.0,94,0.00,,BKN060,0.02,VWS V14.01,2013-09-18 16:36:00,
2013-09-18 09:41:00,59.6,57.6,30.08,SSW,205,0.0,0.0,93,0.00,,BKN060,0.02,VWS V14.01,2013-09-18 16:41:00,
2013-09-18 09:46:00,60.1,58.1,30.09,SSW,207,0.0,0.0,93,0.00,,FEW008,0.02,VWS V14.01,2013-09-18 16:46:00,
2013-09-18 09:51:00,60.7,57.8,30.09,SSW,205,0.0,0.0,90,0.00,,FEW008,0.02,VWS V14.01,2013-09-18 16:51:00,
2013-09-18 09:56:00,61.3,58.0,30.09,NE,46,0.0,0.0,89,0.00,,FEW008,0.02,VWS V14.01,2013-09-18 16:56:00,
2013-09-18 10:01:00,61.2,56.7,30.09,ESE,113,0.0,0.0,85,0.00,,FEW008,0.02,VWS V14.01,2013-09-18 17:01:00,
2013-09-18 10:06:00,60.6,56.4,30.10,ESE,111,0.0,0.0,86,0.00,,SCT016,0.02,VWS V14.01,2013-09-18 17:06:00,
2013-09-18 10:11:00,60.7,57.1,30.09,ESE,111,0.0,0.0,88,0.00,,SCT016,0.02,VWS V14.01,2013-09-18 17:11:00,
2013-09-18 10:16:00,61.2,57.3,30.09,ESE,113,0.0,0.0,87,0.00,,SCT016,0.02,VWS V14.01,2013-09-18 17:16:00,
2013-09-18 10:21:00,61.8,57.6,30.09,East,97,3.0,0.0,86,0.00,,SCT016,0.02,VWS V14.01,2013-09-18 17:21:00,
2013-09-18 10:26:00,61.7,57.5,30.09,ESE,111,0.0,0.0,86,0.00,,BKN016,0.02,VWS V14.01,2013-09-18 17:26:00,
2013-09-18 10:31:00,61.7,57.5,30.09,SW,215,0.0,0.0,86,0.00,,BKN016,0.02,VWS V14.01,2013-09-18 17:31:00,
2013-09-18 10:36:00,61.9,57.3,30.09,SW,225,1.0,0.0,85,0.00,,BKN016,0.02,VWS V14.01,2013-09-18 17:36:00,
2013-09-18 10:41:00,61.7,56.8,30.09,SW,223,1.0,0.0,84,0.01,,BKN016,0.03,VWS V14.01,2013-09-18 17:41:00,
2013-09-18 10:46:00,62.0,57.5,30.09,East,82,1.0,0.0,85,0.01,,OVC018,0.03,VWS V14.01,2013-09-18 17:46:00,
2013-09-18 10:51:00,62.8,57.6,30.09,SE,126,0.0,0.0,83,0.01,,OVC018,0.03,VWS V14.01,2013-09-18 17:51:00,
2013-09-18 10:56:00,63.4,58.2,30.09,ESE,114,1.0,0.0,83,0.01,,OVC018,0.03,VWS V14.01,2013-09-18 17:56:00,
2013-09-18 11:01:00,63.5,57.2,30.09,ESE,103,3.0,0.0,80,0.01,,OVC018,0.03,VWS V14.01,2013-09-18 18:01:00,
2013-09-18 11:06:00,63.9,57.3,30.08,NW,325,1.0,0.0,79,0.01,,BKN020,0.03,VWS V14.01,2013-09-18 18:06:00,
2013-09-18 11:11:00,64.8,57.4,30.08,East,82,0.0,0.0,77,0.01,,BKN020,0.03,VWS V14.01,2013-09-18 18:11:00,
2013-09-18 11:16:00,64.8,57.4,30.08,ESE,118,5.0,0.0,77,0.01,,BKN020,0.03,VWS V14.01,2013-09-18 18:16:00,
2013-09-18 11:21:00,65.0,58.0,30.08,ENE,78,0.0,0.0,78,0.01,,BKN020,0.03,VWS V14.01,2013-09-18 18:21:00,
2013-09-18 11:26:00,65.8,56.9,30.09,NE,51,2.0,0.0,73,0.01,,SCT031,0.03,VWS V14.01,2013-09-18 18:26:00,
2013-09-18 11:31:00,66.1,57.2,30.08,NNE,24,0.0,0.0,73,0.01,,SCT031,0.03,VWS V14.01,2013-09-18 18:31:00,
2013-09-18 11:36:00,66.4,56.3,30.08,ESE,105,2.0,0.0,70,0.01,,SCT031,0.03,VWS V14.01,2013-09-18 18:36:00,
2013-09-18 11:41:00,66.1,56.4,30.09,ESE,121,3.0,0.0,71,0.00,,SCT031,0.03,VWS V14.01,2013-09-18 18:41:00,
2013-09-18 11:46:00,65.6,56.7,30.08,ESE,113,0.0,0.0,73,0.00,,BKN036,0.03,VWS V14.01,2013-09-18 18:46:00,
2013-09-18 11:51:00,65.8,56.2,30.08,ESE,106,1.0,0.0,71,0.00,,BKN036,0.03,VWS V14.01,2013-09-18 18:51:00,
2013-09-18 11:56:00,66.0,55.5,30.08,SE,131,0.0,0.0,69,0.00,,BKN036,0.03,VWS V14.01,2013-09-18 18:56:00,
2013-09-18 12:01:00,66.5,56.0,30.08,ESE,103,3.0,0.0,69,0.00,,BKN036,0.03,VWS V14.01,2013-09-18 19:01:00,
2013-09-18 12:06:00,66.3,56.6,30.08,SSE,156,1.0,0.0,71,0.00,,SCT031,0.03,VWS V14.01,2013-09-18 19:06:00,
2013-09-18 12:11:00,66.7,56.2,30.08,ESE,110,3.0,0.0,69,0.00,,SCT031,0.03,VWS V14.01,2013-09-18 19:11:00,
2013-09-18 12:16:00,66.7,55.4,30.08,ENE,73,3.0,0.0,67,0.00,,SCT031,0.03,VWS V14.01,2013-09-18 19:16:00,
2013-09-18 12:21:00,66.7,55.0,30.08,ESE,117,2.0,0.0,66,0.00,,SCT031,0.03,VWS V14.01,2013-09-18 19:21:00,
2013-09-18 12:27:00,67.2,55.9,30.08,ENE,69,3.0,0.0,67,0.00,,FEW046,0.03,VWS V14.01,2013-09-18 19:27:00,
2013-09-18 12:32:00,67.2,56.3,30.08,ESE,115,4.0,0.0,68,0.00,,FEW046,0.03,VWS V14.01,2013-09-18 19:32:00,
2013-09-18 12:37:00,66.8,54.2,30.08,ESE,107,4.0,0.0,64,0.00,,FEW046,0.03,VWS V14.01,2013-09-18 19:37:00,
2013-09-18 12:42:00,67.1,55.0,30.08,ENE,60,4.0,0.0,65,0.00,,FEW046,0.03,VWS V14.01,2013-09-18 19:42:00,
2013-09-18 12:47:00,67.3,54.7,30.08,NW,311,0.0,0.0,64,0.00,,SCT055,0.03,VWS V14.01,2013-09-18 19:47:00,
2013-09-18 12:52:00,67.9,54.8,30.08,ENE,69,0.0,0.0,63,0.00,,SCT055,0.03,VWS V14.01,2013-09-18 19:52:00,
2013-09-18 12:57:00,68.0,55.0,30.08,South,190,2.0,0.0,63,0.00,,SCT055,0.03,VWS V14.01,2013-09-18 19:57:00,
2013-09-18 13:02:00,68.0,54.5,30.08,SE,128,2.0,0.0,62,0.00,,SCT055,0.03,VWS V14.01,2013-09-18 20:02:00,
2013-09-18 13:07:00,68.2,54.7,30.08,SW,221,0.0,0.0,62,0.00,,BKN050,0.03,VWS V14.01,2013-09-18 20:07:00,
2013-09-18 13:12:00,68.4,53.1,30.08,SE,138,2.0,0.0,58,0.00,,BKN050,0.03,VWS V14.01,2013-09-18 20:12:00,
2013-09-18 13:17:00,68.6,56.4,30.08,East,96,2.0,0.0,65,0.00,,BKN050,0.03,VWS V14.01,2013-09-18 20:17:00,
2013-09-18 13:22:00,68.4,53.1,30.08,SE,141,1.0,0.0,58,0.00,,BKN050,0.03,VWS V14.01,2013-09-18 20:22:00,
2013-09-18 13:27:00,69.2,55.2,30.07,SE,144,0.0,0.0,61,0.00,,FEW037,0.03,VWS V14.01,2013-09-18 20:27:00,
2013-09-18 13:32:00,69.4,53.5,30.07,SE,128,1.0,0.0,57,0.00,,FEW037,0.03,VWS V14.01,2013-09-18 20:32:00,
2013-09-18 13:37:00,69.1,52.3,30.07,ESE,113,0.0,0.0,55,0.00,,FEW037,0.03,VWS V14.01,2013-09-18 20:37:00,
2013-09-18 13:42:00,69.6,52.7,30.07,East,88,2.0,0.0,55,0.00,,FEW037,0.03,VWS V14.01,2013-09-18 20:42:00,
2013-09-18 13:47:00,70.2,53.8,30.07,East,99,3.0,0.0,56,0.00,,FEW042,0.03,VWS V14.01,2013-09-18 20:47:00,
2013-09-18 13:52:00,70.2,53.3,30.07,WNW,282,2.0,0.0,55,0.00,,FEW042,0.03,VWS V14.01,2013-09-18 20:52:00,
2013-09-18 13:57:00,70.8,52.8,30.07,ESE,109,4.0,0.0,53,0.00,,FEW042,0.03,VWS V14.01,2013-09-18 20:57:00,
2013-09-18 14:02:00,69.8,52.4,30.06,SSE,153,0.0,0.0,54,0.00,,FEW042,0.03,VWS V14.01,2013-09-18 21:02:00,
2013-09-18 14:07:00,70.1,52.7,30.06,ESE,121,1.0,0.0,54,0.00,,BKN050,0.03,VWS V14.01,2013-09-18 21:07:00,
2013-09-18 14:12:00,70.5,52.6,30.06,East,101,3.0,0.0,53,0.00,,BKN050,0.03,VWS V14.01,2013-09-18 21:12:00,
2013-09-18 14:17:00,70.2,53.3,30.06,ESE,109,1.0,0.0,55,0.00,,BKN050,0.03,VWS V14.01,2013-09-18 21:17:00,
2013-09-18 14:22:00,70.4,54.0,30.06,ENE,76,4.0,0.0,56,0.00,,BKN050,0.03,VWS V14.01,2013-09-18 21:22:00,
2013-09-18 14:27:00,70.5,52.6,30.06,ESE,108,1.0,0.0,53,0.00,,FEW046,0.03,VWS V14.01,2013-09-18 21:27:00,
2013-09-18 14:32:00,70.0,51.6,30.06,ENE,78,1.0,0.0,52,0.00,,FEW046,0.03,VWS V14.01,2013-09-18 21:32:00,
2013-09-18 14:37:00,70.7,52.8,30.05,SW,217,3.0,0.0,53,0.00,,FEW046,0.03,VWS V14.01,2013-09-18 21:37:00,
2013-09-18 14:42:00,70.6,53.7,30.06,ENE,58,0.0,0.0,55,0.00,,FEW046,0.03,VWS V14.01,2013-09-18 21:42:00,
2013-09-18 14:47:00,70.9,52.4,30.05,East,88,6.0,0.0,52,0.00,,CLR,0.03,VWS V14.01,2013-09-18 21:47:00,
2013-09-18 14:52:00,71.9,54.9,30.05,ENE,73,0.0,0.0,55,0.00,,CLR,0.03,VWS V14.01,2013-09-18 21:52:00,
2013-09-18 14:57:00,72.8,55.2,30.05,South,169,1.0,0.0,54,0.00,,CLR,0.03,VWS V14.01,2013-09-18 21:57:00,
2013-09-18 15:02:00,72.2,53.1,30.05,SW,230,0.0,0.0,51,0.00,,CLR,0.03,VWS V14.01,2013-09-18 22:02:00,
2013-09-18 15:07:00,71.9,52.3,30.05,SE,137,1.0,0.0,50,0.00,,FEW080,0.03,VWS V14.01,2013-09-18 22:07:00,
2013-09-18 15:12:00,71.4,52.3,30.05,WSW,245,2.0,0.0,51,0.00,,FEW080,0.03,VWS V14.01,2013-09-18 22:12:00,
2013-09-18 15:17:00,71.4,53.9,30.05,SW,214,1.0,0.0,54,0.00,,FEW080,0.03,VWS V14.01,2013-09-18 22:17:00,
2013-09-18 15:22:00,70.8,53.8,30.05,SW,219,4.0,0.0,55,0.00,,FEW080,0.03,VWS V14.01,2013-09-18 22:22:00,
2013-09-18 15:27:00,69.7,53.3,30.05,SSW,205,2.0,0.0,56,0.00,,BKN080,0.03,VWS V14.01,2013-09-18 22:27:00,
2013-09-18 15:32:00,69.2,54.3,30.05,SW,214,3.0,0.0,59,0.00,,BKN080,0.03,VWS V14.01,2013-09-18 22:32:00,
2013-09-18 15:37:00,69.4,54.0,30.05,SSW,211,1.0,0.0,58,0.00,,BKN080,0.03,VWS V14.01,2013-09-18 22:37:00,
2013-09-18 15:42:00,69.3,53.4,30.05,SW,219,3.0,0.0,57,0.00,,BKN080,0.03,VWS V14.01,2013-09-18 22:42:00,
2013-09-18 15:47:00,69.1,53.7,30.04,SSW,207,2.0,0.0,58,0.00,,BKN080,0.03,VWS V14.01,2013-09-18 22:47:00,
2013-09-18 15:53:00,69.0,55.0,30.04,SSW,195,2.0,0.0,61,0.00,,BKN080,0.03,VWS V14.01,2013-09-18 22:53:00,
2013-09-18 15:57:00,68.9,54.0,30.04,SSE,153,0.0,0.0,59,0.00,,BKN080,0.03,VWS V14.01,2013-09-18 22:57:00,
2013-09-18 16:03:00,68.8,53.0,30.04,SSE,153,0.0,0.0,57,0.00,,BKN080,0.03,VWS V14.01,2013-09-18 23:03:00,
2013-09-18 16:07:00,68.9,54.0,30.04,South,188,1.0,0.0,59,0.00,,SCT080,0.03,VWS V14.01,2013-09-18 23:07:00,
2013-09-18 16:12:00,68.7,54.3,30.04,South,191,0.0,0.0,60,0.00,,SCT080,0.03,VWS V14.01,2013-09-18 23:12:00,
2013-09-18 16:17:00,68.5,54.5,30.04,South,180,3.0,0.0,61,0.00,,SCT080,0.03,VWS V14.01,2013-09-18 23:17:00,
2013-09-18 16:22:00,68.2,55.6,30.04,SSW,207,0.0,0.0,64,0.00,,SCT080,0.03,VWS V14.01,2013-09-18 23:22:00,
2013-09-18 16:27:00,68.1,54.6,30.04,SSW,198,4.0,0.0,62,0.00,,FEW085,0.03,VWS V14.01,2013-09-18 23:27:00,
2013-09-18 16:33:00,67.9,54.8,30.04,SSW,196,2.0,0.0,63,0.00,,FEW085,0.03,VWS V14.01,2013-09-18 23:33:00,
2013-09-18 16:38:00,67.8,54.3,30.04,SSW,205,2.0,0.0,62,0.00,,FEW085,0.03,VWS V14.01,2013-09-18 23:38:00,
2013-09-18 16:43:00,67.7,55.1,30.04,SW,217,3.0,0.0,64,0.00,,FEW085,0.03,VWS V14.01,2013-09-18 23:43:00,
2013-09-18 16:48:00,67.7,55.5,30.04,South,178,0.0,0.0,65,0.00,,BKN085,0.03,VWS V14.01,2013-09-18 23:48:00,
2013-09-18 16:53:00,67.7,54.2,30.04,South,176,0.0,0.0,62,0.00,,BKN085,0.03,VWS V14.01,2013-09-18 23:53:00,
2013-09-18 16:58:00,67.9,54.8,30.04,South,175,0.0,0.0,63,0.00,,BKN085,0.03,VWS V14.01,2013-09-18 23:58:00,
2013-09-18 17:03:00,67.9,54.0,30.04,South,175,0.0,0.0,61,0.00,,OVC085,0.03,VWS V14.01,2013-09-19 00:03:00,
2013-09-18 17:08:00,67.9,54.8,30.04,SE,134,0.0,0.0,63,0.00,,OVC085,0.03,VWS V14.01,2013-09-19 00:08:00,
2013-09-18 17:13:00,67.9,55.7,30.05,East,96,1.0,0.0,65,0.00,,OVC085,0.03,VWS V14.01,2013-09-19 00:13:00,
2013-09-18 17:18:00,67.6,56.3,30.05,ESE,113,0.0,0.0,67,0.00,,OVC085,0.03,VWS V14.01,2013-09-19 00:18:00,
2013-09-18 17:23:00,67.6,56.7,30.04,ESE,113,0.0,0.0,68,0.00,,OVC085,0.03,VWS V14.01,2013-09-19 00:23:00,
2013-09-18 17:28:00,67.7,56.8,30.04,ESE,113,0.0,0.0,68,0.00,,OVC085,0.03,VWS V14.01,2013-09-19 00:28:00,
2013-09-18 17:33:00,67.9,57.0,30.04,SSW,202,1.0,0.0,68,0.00,,OVC085,0.03,VWS V14.01,2013-09-19 00:33:00,
2013-09-18 17:38:00,67.9,55.7,30.04,South,171,0.0,0.0,65,0.00,,OVC085,0.03,VWS V14.01,2013-09-19 00:38:00,
2013-09-18 17:43:00,67.7,56.0,30.04,South,172,0.0,0.0,66,0.00,,OVC085,0.03,VWS V14.01,2013-09-19 00:43:00,
2013-09-18 17:48:00,67.6,56.3,30.04,SE,126,0.0,0.0,67,0.00,,OVC085,0.03,VWS V14.01,2013-09-19 00:48:00,
2013-09-18 17:53:00,67.5,55.3,30.04,ESE,110,0.0,0.0,65,0.00,,OVC085,0.03,VWS V14.01,2013-09-19 00:53:00,
2013-09-18 17:58:00,67.4,55.7,30.04,East,101,0.0,0.0,66,0.00,,OVC085,0.03,VWS V14.01,2013-09-19 00:58:00,
2013-09-18 18:03:00,67.4,56.1,30.04,East,101,0.0,0.0,67,0.00,,OVC085,0.03,VWS V14.01,2013-09-19 01:03:00,
2013-09-18 18:08:00,67.4,56.9,30.04,East,101,0.0,0.0,69,0.00,,OVC085,0.03,VWS V14.01,2013-09-19 01:08:00,
2013-09-18 18:13:00,67.3,57.2,30.04,East,101,0.0,0.0,70,0.00,,OVC085,0.03,VWS V14.01,2013-09-19 01:13:00,
2013-09-18 18:18:00,67.4,56.9,30.04,East,101,0.0,0.0,69,0.00,,OVC085,0.03,VWS V14.01,2013-09-19 01:18:00,
2013-09-18 18:23:00,67.2,56.3,30.04,East,101,0.0,0.0,68,0.00,,OVC085,0.03,VWS V14.01,2013-09-19 01:23:00,
2013-09-18 18:28:00,66.9,56.0,30.04,ESE,109,0.0,0.0,68,0.00,,OVC085,0.03,VWS V14.01,2013-09-19 01:28:00,
2013-09-18 18:33:00,66.7,56.2,30.04,SSE,150,0.0,0.0,69,0.00,,OVC085,0.03,VWS V14.01,2013-09-19 01:33:00,
2013-09-18 18:38:00,66.6,55.7,30.03,SSE,150,0.0,0.0,68,0.00,,OVC085,0.03,VWS V14.01,2013-09-19 01:38:00,
2013-09-18 18:43:00,66.2,55.7,30.03,SW,219,0.0,0.0,69,0.00,,BKN085,0.03,VWS V14.01,2013-09-19 01:43:00,
2013-09-18 18:48:00,65.8,55.4,30.03,SW,219,0.0,0.0,69,0.00,,BKN085,0.03,VWS V14.01,2013-09-19 01:48:00,
2013-09-18 18:53:00,65.5,55.5,30.03,South,176,0.0,0.0,70,0.00,,BKN085,0.03,VWS V14.01,2013-09-19 01:53:00,
2013-09-18 18:58:00,65.3,55.7,30.03,South,176,0.0,0.0,71,0.00,,BKN085,0.03,VWS V14.01,2013-09-19 01:58:00,
2013-09-18 19:03:00,64.8,55.2,30.03,South,176,0.0,0.0,71,0.00,,FEW085,0.03,VWS V14.01,2013-09-19 02:03:00,
2013-09-18 19:08:00,64.5,55.3,30.03,South,176,0.0,0.0,72,0.00,,FEW085,0.03,VWS V14.01,2013-09-19 02:08:00,
2013-09-18 19:13:00,64.1,55.7,30.03,South,176,0.0,0.0,74,0.00,,FEW085,0.03,VWS V14.01,2013-09-19 02:13:00,
2013-09-18 19:18:00,63.5,55.1,30.03,South,177,0.0,0.0,74,0.00,,FEW085,0.03,VWS V14.01,2013-09-19 02:18:00,
2013-09-18 19:23:00,63.1,55.4,30.03,South,176,0.0,0.0,76,0.00,,CLR,0.03,VWS V14.01,2013-09-19 02:23:00,
2013-09-18 19:28:00,62.6,55.3,30.03,South,176,0.0,0.0,77,0.00,,CLR,0.03,VWS V14.01,2013-09-19 02:28:00,
2013-09-18 19:33:00,62.0,55.1,30.03,South,176,0.0,0.0,78,0.00,,CLR,0.03,VWS V14.01,2013-09-19 02:33:00,
2013-09-18 19:38:00,61.3,55.1,30.03,South,177,0.0,0.0,80,0.00,,CLR,0.03,VWS V14.01,2013-09-19 02:38:00,
2013-09-18 19:43:00,60.8,54.9,30.04,South,177,0.0,0.0,81,0.00,,CLR,0.03,VWS V14.01,2013-09-19 02:43:00,
2013-09-18 19:48:00,60.4,54.9,30.04,South,176,0.0,0.0,82,0.00,,CLR,0.03,VWS V14.01,2013-09-19 02:48:00,
2013-09-18 19:53:00,60.0,54.8,30.04,South,176,0.0,0.0,83,0.00,,CLR,0.03,VWS V14.01,2013-09-19 02:53:00,
2013-09-18 19:58:00,59.7,55.2,30.04,South,176,0.0,0.0,85,0.00,,CLR,0.03,VWS V14.01,2013-09-19 02:58:00,
2013-09-18 20:03:00,59.4,55.5,30.04,South,176,0.0,0.0,87,0.00,,CLR,0.03,VWS V14.01,2013-09-19 03:03:00,
2013-09-18 20:08:00,59.1,55.2,30.05,South,176,0.0,0.0,87,0.00,,CLR,0.03,VWS V14.01,2013-09-19 03:08:00,
2013-09-18 20:13:00,58.6,55.1,30.05,South,176,0.0,0.0,88,0.00,,CLR,0.03,VWS V14.01,2013-09-19 03:13:00,
2013-09-18 20:18:00,58.3,55.1,30.05,South,176,0.0,0.0,89,0.00,,CLR,0.03,VWS V14.01,2013-09-19 03:18:00,
2013-09-18 20:23:00,58.0,54.8,30.05,South,171,0.0,0.0,89,0.00,,CLR,0.03,VWS V14.01,2013-09-19 03:23:00,
2013-09-18 20:28:00,57.8,54.6,30.06,South,169,0.0,0.0,89,0.00,,CLR,0.03,VWS V14.01,2013-09-19 03:28:00,
2013-09-18 20:33:00,57.5,54.6,30.05,SSW,192,1.0,0.0,90,0.00,,CLR,0.03,VWS V14.01,2013-09-19 03:33:00,
2013-09-18 20:38:00,57.4,54.5,30.06,South,191,0.0,0.0,90,0.00,,CLR,0.03,VWS V14.01,2013-09-19 03:38:00,
2013-09-18 20:43:00,57.2,54.3,30.05,South,191,0.0,0.0,90,0.00,,CLR,0.03,VWS V14.01,2013-09-19 03:43:00,
2013-09-18 20:49:00,57.2,54.6,30.06,South,191,0.0,0.0,91,0.00,,CLR,0.03,VWS V14.01,2013-09-19 03:49:00,
2013-09-18 20:54:00,57.1,54.5,30.05,SSW,192,0.0,0.0,91,0.00,,CLR,0.03,VWS V14.01,2013-09-19 03:54:00,
2013-09-18 20:59:00,56.9,54.3,30.05,SSW,193,0.0,0.0,91,0.00,,CLR,0.03,VWS V14.01,2013-09-19 03:59:00,
2013-09-18 21:01:00,56.8,54.2,30.05,SSW,192,0.0,0.0,91,0.00,,CLR,0.03,VWS V14.01,2013-09-19 04:01:00,
2013-09-18 21:06:00,56.6,54.0,30.06,SSW,192,0.0,0.0,91,0.00,,CLR,0.03,VWS V14.01,2013-09-19 04:06:00,
2013-09-18 21:08:00,56.5,53.9,30.06,SSW,192,0.0,0.0,91,0.00,,CLR,0.03,VWS V14.01,2013-09-19 04:08:00,
2013-09-18 21:13:00,56.1,53.5,30.05,SSW,192,0.0,0.0,91,0.00,,CLR,0.03,VWS V14.01,2013-09-19 04:13:00,
2013-09-18 21:18:00,55.7,53.1,30.05,SSW,192,0.0,0.0,91,0.00,,CLR,0.03,VWS V14.01,2013-09-19 04:18:00,
2013-09-18 21:23:00,55.6,53.3,30.05,SSW,192,0.0,0.0,92,0.00,,CLR,0.03,VWS V14.01,2013-09-19 04:23:00,
2013-09-18 21:28:00,55.4,53.4,30.05,WSW,242,0.0,0.0,93,0.00,,CLR,0.03,VWS V14.01,2013-09-19 04:28:00,
2013-09-18 21:33:00,55.3,53.3,30.05,SW,225,0.0,0.0,93,0.00,,CLR,0.03,VWS V14.01,2013-09-19 04:33:00,
2013-09-18 21:38:00,55.3,53.3,30.05,ESE,115,1.0,0.0,93,0.00,,CLR,0.03,VWS V14.01,2013-09-19 04:38:00,
2013-09-18 21:43:00,55.1,53.1,30.06,ESE,115,0.0,0.0,93,0.00,,CLR,0.03,VWS V14.01,2013-09-19 04:43:00,
2013-09-18 21:48:00,54.9,52.9,30.05,SSW,197,0.0,0.0,93,0.00,,CLR,0.03,VWS V14.01,2013-09-19 04:48:00,
2013-09-18 21:53:00,54.9,52.9,30.05,SSW,198,0.0,0.0,93,0.00,,CLR,0.03,VWS V14.01,2013-09-19 04:53:00,
2013-09-18 21:58:00,54.7,52.7,30.05,SSW,198,0.0,0.0,93,0.00,,CLR,0.03,VWS V14.01,2013-09-19 04:58:00,
2013-09-18 22:03:00,54.6,52.6,30.05,SSW,198,0.0,0.0,93,0.00,,CLR,0.03,VWS V14.01,2013-09-19 05:03:00,
2013-09-18 22:08:00,54.4,52.4,30.05,SSW,198,0.0,0.0,93,0.00,,CLR,0.03,VWS V14.01,2013-09-19 05:08:00,
2013-09-18 22:13:00,54.2,52.5,30.05,SSW,197,0.0,0.0,94,0.00,,CLR,0.03,VWS V14.01,2013-09-19 05:13:00,
2013-09-18 22:18:00,54.1,52.4,30.05,SSW,198,0.0,0.0,94,0.00,,CLR,0.03,VWS V14.01,2013-09-19 05:18:00,
2013-09-18 22:23:00,53.9,52.2,30.04,SE,130,0.0,0.0,94,0.00,,CLR,0.03,VWS V14.01,2013-09-19 05:23:00,
2013-09-18 22:28:00,53.8,52.1,30.04,SSW,202,0.0,0.0,94,0.00,,CLR,0.03,VWS V14.01,2013-09-19 05:28:00,
2013-09-18 22:33:00,53.7,52.0,30.04,SSW,202,0.0,0.0,94,0.00,,CLR,0.03,VWS V14.01,2013-09-19 05:33:00,
2013-09-18 22:38:00,53.4,51.7,30.04,NW,325,1.0,0.0,94,0.00,,CLR,0.03,VWS V14.01,2013-09-19 05:38:00,
2013-09-18 22:43:00,53.5,51.8,30.04,WNW,303,1.0,0.0,94,0.00,,CLR,0.03,VWS V14.01,2013-09-19 05:43:00,
2013-09-18 22:48:00,53.5,51.8,30.04,WNW,302,0.0,0.0,94,0.00,,CLR,0.03,VWS V14.01,2013-09-19 05:48:00,
2013-09-18 22:53:00,53.4,51.7,30.03,WNW,302,0.0,0.0,94,0.00,,CLR,0.03,VWS V14.01,2013-09-19 05:53:00,
2013-09-18 22:58:00,53.6,52.2,30.03,SW,217,0.0,0.0,95,0.00,,CLR,0.03,VWS V14.01,2013-09-19 05:58:00,
2013-09-18 23:03:00,53.8,52.4,30.03,South,175,1.0,0.0,95,0.00,,CLR,0.03,VWS V14.01,2013-09-19 06:03:00,
2013-09-18 23:07:00,53.8,52.4,30.03,NNW,346,0.0,0.0,95,0.00,,CLR,0.03,VWS V14.01,2013-09-19 06:07:00,
2013-09-18 23:12:00,53.7,52.3,30.03,NNW,346,0.0,0.0,95,0.00,,CLR,0.03,VWS V14.01,2013-09-19 06:12:00,
2013-09-18 23:17:00,53.7,52.3,30.03,West,263,0.0,0.0,95,0.00,,CLR,0.03,VWS V14.01,2013-09-19 06:17:00,
2013-09-18 23:22:00,53.6,52.2,30.03,SSW,196,0.0,0.0,95,0.00,,CLR,0.03,VWS V14.01,2013-09-19 06:22:00,
2013-09-18 23:27:00,53.5,52.1,30.03,WSW,250,0.0,0.0,95,0.00,,CLR,0.03,VWS V14.01,2013-09-19 06:27:00,
2013-09-18 23:32:00,53.4,52.0,30.03,WSW,250,0.0,0.0,95,0.00,,CLR,0.03,VWS V14.01,2013-09-19 06:32:00,
2013-09-18 23:37:00,53.3,51.9,30.03,WSW,250,0.0,0.0,95,0.00,,CLR,0.03,VWS V14.01,2013-09-19 06:37:00,
2013-09-18 23:42:00,53.2,51.8,30.03,WSW,250,0.0,0.0,95,0.00,,CLR,0.03,VWS V14.01,2013-09-19 06:42:00,
2013-09-18 23:47:00,52.9,51.5,30.03,ESE,122,0.0,0.0,95,0.00,,CLR,0.03,VWS V14.01,2013-09-19 06:47:00,
2013-09-18 23:52:00,52.6,51.2,30.03,SSW,206,2.0,0.0,95,0.00,,CLR,0.03,VWS V14.01,2013-09-19 06:52:00,
2013-09-18 23:57:00,52.3,50.9,30.03,South,183,0.0,0.0,95,0.00,,CLR,0.03,VWS V14.01,2013-09-19 06:57:00,